Terminal Aerodrome Forecast
Issued by NWS Shreveport, LA

Home | Current Version | Previous Version | Text Only | Print | Product List | Glossary On
Versions: 1 2 3 4 5 6 7 8 9 10 11 12 13 14 15 16 17 18 19 20 21
223
FTUS44 KSHV 291120
TAFTXK
TAF
KTXK 291120Z 2912/3012 20007KT P6SM FEW004 BKN050
     FM291600 24007KT P6SM SCT035 SCT250
     FM291800 26008KT P6SM VCTS SCT045CB SCT250
     FM300000 19006KT P6SM FEW060 SCT250
     FM300600 21006KT P6SM SCT250=

USA.gov is the U.S. government's official web portal to all federal, state and local government web resources and services.